Time;durP1;ratioP1;P1;durP2;ratioP2;P2;SDS_P1;SDS_P2;PMS_P1;PMS_P2;Temp;Humidity;BMP_temperature;BMP_pressure;BME280_temperature;BME280_humidity;BME280_pressure;Samples;Min_cycle;Max_cycle;Signal;HPM_P1;HPM_P2
2023/09/28 00:00:36;;;;;;;;;;;17.10;99.90;;;;;;5019606;28;19920;-73
2023/09/28 00:03:03;;;;;;;;;;;17.10;99.90;;;;;;5019008;28;20459;-72
2023/09/28 00:05:29;;;;;;;;;;;17.00;99.90;;;;;;5017847;28;19909;-72
2023/09/28 00:07:55;;;;;;;;;;;17.00;99.90;;;;;;5017598;28;19920;-72
2023/09/28 00:10:21;;;;;;;;;;;17.00;99.90;;;;;;5000162;28;20018;-72
2023/09/28 00:12:48;;;;;;;;;;;16.90;99.90;;;;;;5014155;28;19917;-72
2023/09/28 00:15:14;;;;;;;;;;;16.90;99.90;;;;;;5017433;28;19917;-72
2023/09/28 00:17:40;;;;;;;;;;;16.80;99.90;;;;;;5016913;28;19921;-72
2023/09/28 00:20:13;;;;;;;;;;;16.90;99.90;;;;;;5017410;28;20008;-72
2023/09/28 00:22:41;;;;;;;;;;;16.80;99.90;;;;;;4999091;28;20292;-72
2023/09/28 00:25:11;;;;;;;;;;;16.80;99.90;;;;;;5018755;28;19920;-72
2023/09/28 00:27:42;;;;;;;;;;;16.80;99.90;;;;;;5007834;28;19917;-72
2023/09/28 00:30:12;;;;;;;;;;;16.80;99.90;;;;;;4999896;28;20387;-72
2023/09/28 00:32:38;;;;;;;;;;;16.80;99.90;;;;;;4999979;28;19921;-72
2023/09/28 00:35:04;;;;;;;;;;;16.80;99.90;;;;;;5017391;28;19920;-72
2023/09/28 00:37:30;;;;;;;;;;;16.80;99.90;;;;;;5016676;28;19967;-72
2023/09/28 00:39:56;;;;;;;;;;;16.80;99.90;;;;;;5017636;28;20629;-72
2023/09/28 00:42:22;;;;;;;;;;;16.80;99.90;;;;;;4995126;28;19916;-70
2023/09/28 00:44:48;;;;;;;;;;;16.80;99.90;;;;;;5015527;28;19917;-70
2023/09/28 00:47:13;;;;;;;;;;;16.80;99.90;;;;;;4996994;28;20300;-70
2023/09/28 00:49:39;;;;;;;;;;;16.80;99.90;;;;;;5020419;28;20008;-70
2023/09/28 00:52:07;;;;;;;;;;;16.80;99.90;;;;;;5003260;28;19917;-70
2023/09/28 00:54:33;;;;;;;;;;;16.70;99.90;;;;;;5004115;28;19909;-70
2023/09/28 00:56:59;;;;;;;;;;;16.70;99.90;;;;;;5012596;28;19916;-70
2023/09/28 00:59:24;;;;;;;;;;;16.60;99.90;;;;;;5015939;28;19921;-70
2023/09/28 01:01:50;;;;;;;;;;;16.60;99.90;;;;;;5013734;28;20082;-70
2023/09/28 01:04:16;;;;;;;;;;;16.60;99.90;;;;;;5018322;28;20320;-70
2023/09/28 01:06:41;;;;;;;;;;;16.60;99.90;;;;;;5008829;28;20008;-70
2023/09/28 01:09:09;;;;;;;;;;;16.50;99.90;;;;;;5017674;28;19917;-70
2023/09/28 01:11:36;;;;;;;;;;;16.50;99.90;;;;;;5005728;28;19987;-70
2023/09/28 01:14:02;;;;;;;;;;;16.50;99.90;;;;;;5016478;28;20433;-70
2023/09/28 01:16:27;;;;;;;;;;;16.50;99.90;;;;;;5017429;28;19917;-70
2023/09/28 01:18:53;;;;;;;;;;;16.50;99.90;;;;;;5015432;28;19921;-70
2023/09/28 01:21:18;;;;;;;;;;;16.50;99.90;;;;;;5007981;28;20415;-70
2023/09/28 01:23:45;;;;;;;;;;;16.50;99.90;;;;;;5013899;28;19999;-70
2023/09/28 01:26:11;;;;;;;;;;;16.40;99.90;;;;;;5017864;28;19920;-70
2023/09/28 01:28:38;;;;;;;;;;;16.50;99.90;;;;;;5002473;28;19952;-70
2023/09/28 01:31:04;;;;;;;;;;;16.40;99.90;;;;;;5013740;28;19920;-70
2023/09/28 01:33:30;;;;;;;;;;;16.40;99.90;;;;;;5016656;28;20272;-70
2023/09/28 01:35:55;;;;;;;;;;;16.40;99.90;;;;;;5017733;28;19979;-70
2023/09/28 01:38:42;;;;;;;;;;;16.30;99.90;;;;;;5010161;28;20000;-70
2023/09/28 01:41:08;;;;;;;;;;;16.20;99.90;;;;;;5011035;28;20015;-70
2023/09/28 01:43:35;;;;;;;;;;;16.20;99.90;;;;;;5014959;28;20025;-70
2023/09/28 01:46:01;;;;;;;;;;;16.10;99.90;;;;;;5016801;28;20732;-70
2023/09/28 01:48:26;;;;;;;;;;;16.10;99.90;;;;;;5000964;28;19951;-70
2023/09/28 01:50:53;;;;;;;;;;;16.10;99.90;;;;;;5016797;28;20435;-70
2023/09/28 01:53:18;;;;;;;;;;;16.00;99.90;;;;;;5006504;28;19956;-70
2023/09/28 01:55:44;;;;;;;;;;;16.00;99.90;;;;;;5016663;28;20474;-70
2023/09/28 01:58:10;;;;;;;;;;;16.00;99.90;;;;;;5017691;28;19920;-70
2023/09/28 02:00:36;;;;;;;;;;;15.90;99.90;;;;;;5016753;28;20261;-70
2023/09/28 02:03:03;;;;;;;;;;;15.90;99.90;;;;;;4998054;28;19913;-70
2023/09/28 02:05:32;;;;;;;;;;;15.90;99.90;;;;;;4999787;28;19966;-70
2023/09/28 02:07:58;;;;;;;;;;;15.90;99.90;;;;;;5018137;28;19909;-70
2023/09/28 02:10:24;;;;;;;;;;;15.90;99.90;;;;;;5015421;28;19909;-70
2023/09/28 02:12:50;;;;;;;;;;;15.90;99.90;;;;;;5004805;28;19920;-70
2023/09/28 02:15:16;;;;;;;;;;;15.90;99.90;;;;;;5008339;28;19971;-70
2023/09/28 02:17:42;;;;;;;;;;;15.90;99.90;;;;;;4995667;28;20379;-70
2023/09/28 02:20:09;;;;;;;;;;;15.80;99.90;;;;;;5004683;28;19952;-70
2023/09/28 02:22:36;;;;;;;;;;;15.80;99.90;;;;;;5006957;28;20317;-70
2023/09/28 02:25:02;;;;;;;;;;;15.80;99.90;;;;;;5000453;28;19916;-70
2023/09/28 02:27:29;;;;;;;;;;;15.70;99.90;;;;;;5003197;28;19988;-70
2023/09/28 02:29:55;;;;;;;;;;;15.70;99.90;;;;;;5015922;28;19909;-70
2023/09/28 02:32:20;;;;;;;;;;;15.70;99.90;;;;;;5010976;28;20388;-70
2023/09/28 02:34:46;;;;;;;;;;;15.70;99.90;;;;;;5014202;28;20444;-70
2023/09/28 02:37:11;;;;;;;;;;;15.70;99.90;;;;;;4996466;28;19909;-71
2023/09/28 02:39:37;;;;;;;;;;;15.70;99.90;;;;;;5015282;28;19918;-70
2023/09/28 02:42:07;;;;;;;;;;;15.70;99.90;;;;;;4996315;28;19920;-70
2023/09/28 02:44:35;;;;;;;;;;;15.80;99.90;;;;;;5014336;28;19925;-70
2023/09/28 02:47:04;;;;;;;;;;;15.80;99.90;;;;;;5014648;28;20280;-70
2023/09/28 02:49:29;;;;;;;;;;;15.90;99.90;;;;;;4998249;28;20663;-70
2023/09/28 02:51:55;;;;;;;;;;;15.90;99.90;;;;;;5013249;28;19928;-70
2023/09/28 02:54:20;;;;;;;;;;;15.90;99.90;;;;;;5012070;28;20024;-70
2023/09/28 02:56:46;;;;;;;;;;;15.90;99.90;;;;;;5019253;28;20004;-70
2023/09/28 02:59:12;;;;;;;;;;;16.00;99.90;;;;;;4992410;28;19910;-70
2023/09/28 03:01:38;;;;;;;;;;;15.90;99.90;;;;;;5019871;28;19913;-70
2023/09/28 03:04:03;;;;;;;;;;;15.90;99.90;;;;;;5013193;28;20704;-70
2023/09/28 03:06:36;;;;;;;;;;;15.90;99.90;;;;;;4997888;28;19956;-70
2023/09/28 03:09:02;;;;;;;;;;;15.90;99.90;;;;;;5020024;28;19917;-70
2023/09/28 03:11:28;;;;;;;;;;;15.90;99.90;;;;;;5014725;28;19917;-70
2023/09/28 03:13:53;;;;;;;;;;;15.90;99.90;;;;;;5015045;28;19913;-70
2023/09/28 03:16:19;;;;;;;;;;;15.80;99.90;;;;;;5006945;28;19960;-70
2023/09/28 03:18:44;;;;;;;;;;;15.80;99.90;;;;;;5016877;28;20576;-70
2023/09/28 03:21:10;;;;;;;;;;;15.80;99.90;;;;;;5012570;28;20308;-70
2023/09/28 03:23:35;;;;;;;;;;;15.70;99.90;;;;;;5015404;28;19923;-70
2023/09/28 03:26:01;;;;;;;;;;;15.70;99.90;;;;;;5015693;28;19917;-70
2023/09/28 03:28:29;;;;;;;;;;;15.60;99.90;;;;;;5011480;28;19913;-70
2023/09/28 03:30:56;;;;;;;;;;;15.60;99.90;;;;;;5016160;28;20569;-70
2023/09/28 03:33:22;;;;;;;;;;;15.60;99.90;;;;;;5013156;28;19960;-70
2023/09/28 03:35:47;;;;;;;;;;;15.50;99.90;;;;;;5016128;28;19913;-70
2023/09/28 03:38:13;;;;;;;;;;;15.50;99.90;;;;;;5015415;28;19917;-70
2023/09/28 03:40:43;;;;;;;;;;;15.40;99.90;;;;;;5014851;28;19998;-70
2023/09/28 03:43:09;;;;;;;;;;;15.40;99.90;;;;;;5013437;28;19931;-70
2023/09/28 03:45:35;;;;;;;;;;;15.30;99.90;;;;;;5013360;28;19913;-69
2023/09/28 03:48:01;;;;;;;;;;;15.30;99.90;;;;;;5017383;28;20481;-70
2023/09/28 03:50:26;;;;;;;;;;;15.30;99.90;;;;;;5000242;28;20028;-70
2023/09/28 03:52:52;;;;;;;;;;;15.30;99.90;;;;;;5005400;28;19913;-69
2023/09/28 03:55:19;;;;;;;;;;;15.20;99.90;;;;;;5009053;28;19917;-70
2023/09/28 03:57:45;;;;;;;;;;;15.20;99.90;;;;;;5012150;28;20372;-70
2023/09/28 04:00:14;;;;;;;;;;;15.20;99.90;;;;;;5015810;28;19924;-69
2023/09/28 04:02:40;;;;;;;;;;;15.10;99.90;;;;;;5016221;28;20909;-70
2023/09/28 04:05:06;;;;;;;;;;;15.10;99.90;;;;;;5013398;28;19966;-70
2023/09/28 04:07:31;;;;;;;;;;;15.10;99.90;;;;;;5016880;28;20028;-70
2023/09/28 04:09:57;;;;;;;;;;;15.10;99.90;;;;;;4995591;28;19913;-70
2023/09/28 04:12:22;;;;;;;;;;;15.10;99.90;;;;;;4995987;28;19924;-70
2023/09/28 04:14:48;;;;;;;;;;;15.00;99.90;;;;;;4990982;28;19917;-70
2023/09/28 04:17:13;;;;;;;;;;;15.00;99.90;;;;;;5015254;28;19935;-69
2023/09/28 04:19:40;;;;;;;;;;;15.00;99.90;;;;;;5014844;28;20548;-70
2023/09/28 04:22:05;;;;;;;;;;;15.00;99.90;;;;;;5009698;28;20362;-70
2023/09/28 04:24:31;;;;;;;;;;;14.90;99.90;;;;;;5012629;28;19913;-70
2023/09/28 04:26:58;;;;;;;;;;;14.80;99.90;;;;;;5014473;28;19917;-69
2023/09/28 04:29:24;;;;;;;;;;;14.80;99.90;;;;;;4995271;28;19963;-70
2023/09/28 04:31:50;;;;;;;;;;;14.70;99.90;;;;;;5010971;28;19996;-70
2023/09/28 04:34:15;;;;;;;;;;;14.70;99.90;;;;;;4995905;28;20059;-70
2023/09/28 04:36:41;;;;;;;;;;;14.70;99.90;;;;;;4999013;28;19986;-70
2023/09/28 04:39:10;;;;;;;;;;;14.70;99.90;;;;;;4999899;28;19917;-69
2023/09/28 04:41:39;;;;;;;;;;;14.60;99.90;;;;;;5016893;28;19913;-69
2023/09/28 04:44:05;;;;;;;;;;;14.60;99.90;;;;;;5016353;28;19921;-69
2023/09/28 04:46:31;;;;;;;;;;;14.60;99.90;;;;;;5018659;28;19916;-70
2023/09/28 04:48:56;;;;;;;;;;;14.50;99.90;;;;;;5018693;28;20304;-70
2023/09/28 04:51:22;;;;;;;;;;;14.50;99.90;;;;;;5014151;28;19989;-70
2023/09/28 04:53:48;;;;;;;;;;;14.60;99.90;;;;;;5017521;28;20581;-70
2023/09/28 04:56:15;;;;;;;;;;;14.50;99.90;;;;;;5016124;28;20079;-70
2023/09/28 04:58:41;;;;;;;;;;;14.50;99.90;;;;;;5017258;28;19920;-70
2023/09/28 05:01:07;;;;;;;;;;;14.60;99.90;;;;;;5010600;28;19922;-69
2023/09/28 05:03:33;;;;;;;;;;;14.70;99.90;;;;;;5012900;28;19913;-72
2023/09/28 05:05:59;;;;;;;;;;;14.80;99.90;;;;;;4997961;28;19917;-72
2023/09/28 05:08:24;;;;;;;;;;;15.00;99.90;;;;;;5015312;28;20551;-72
2023/09/28 05:10:52;;;;;;;;;;;15.20;99.90;;;;;;5016579;28;19948;-72
2023/09/28 05:13:17;;;;;;;;;;;15.30;99.90;;;;;;5016124;28;19921;-71
2023/09/28 05:15:43;;;;;;;;;;;15.60;99.90;;;;;;5019227;28;19917;-74
2023/09/28 05:18:09;;;;;;;;;;;15.90;99.90;;;;;;5020441;28;19916;-73
2023/09/28 05:20:34;;;;;;;;;;;16.20;99.90;;;;;;5013831;28;19913;-73
2023/09/28 05:23:00;;;;;;;;;;;16.50;99.90;;;;;;4999776;28;20000;-73
2023/09/28 05:25:25;;;;;;;;;;;16.90;99.90;;;;;;5010598;28;19920;-73
2023/09/28 05:27:51;;;;;;;;;;;17.30;99.90;;;;;;5009237;28;19913;-73
2023/09/28 05:30:17;;;;;;;;;;;17.80;99.90;;;;;;5022332;28;19936;-73
2023/09/28 05:32:44;;;;;;;;;;;18.20;99.90;;;;;;4999267;28;20443;-73
2023/09/28 05:35:10;;;;;;;;;;;18.60;99.90;;;;;;5020981;28;20621;-73
2023/09/28 05:37:36;;;;;;;;;;;19.10;99.90;;;;;;4996989;28;19909;-72
2023/09/28 05:40:04;;;;;;;;;;;19.30;99.90;;;;;;5015852;28;20380;-73
2023/09/28 05:42:30;;;;;;;;;;;19.80;99.90;;;;;;5016077;28;20031;-73
2023/09/28 05:44:55;;;;;;;;;;;20.30;99.90;;;;;;5015158;28;19917;-73
2023/09/28 05:47:21;;;;;;;;;;;20.80;99.90;;;;;;5016930;28;19921;-73
2023/09/28 05:49:47;;;;;;;;;;;20.80;99.90;;;;;;5017781;28;20781;-73
2023/09/28 05:52:13;;;;;;;;;;;20.90;99.90;;;;;;5020676;28;19917;-71
2023/09/28 05:54:38;;;;;;;;;;;21.40;99.90;;;;;;4997211;28;19924;-72
2023/09/28 05:57:04;;;;;;;;;;;21.50;99.90;;;;;;5016797;28;19913;-65
2023/09/28 05:59:30;;;;;;;;;;;21.30;99.90;;;;;;5016439;28;19916;-66
2023/09/28 06:01:55;;;;;;;;;;;21.50;99.90;;;;;;5015243;28;20533;-69
2023/09/28 06:04:21;;;;;;;;;;;21.70;99.90;;;;;;5010881;28;19920;-70
2023/09/28 06:06:50;;;;;;;;;;;21.70;99.90;;;;;;5018721;28;19913;-72
2023/09/28 06:09:16;;;;;;;;;;;21.80;99.90;;;;;;5014621;28;20518;-71
2023/09/28 06:11:41;;;;;;;;;;;21.90;99.90;;;;;;5014939;28;19944;-72
2023/09/28 06:14:08;;;;;;;;;;;22.00;99.90;;;;;;5014515;28;20012;-72
2023/09/28 06:16:36;;;;;;;;;;;22.30;99.90;;;;;;5013287;28;19913;-72
2023/09/28 06:19:02;;;;;;;;;;;22.70;99.90;;;;;;5011099;28;19913;-79
2023/09/28 06:21:28;;;;;;;;;;;23.00;99.90;;;;;;4999643;28;19940;-80
2023/09/28 06:23:54;;;;;;;;;;;23.30;99.90;;;;;;5012550;28;19917;-79
2023/09/28 06:26:20;;;;;;;;;;;23.50;99.90;;;;;;5020265;28;19986;-80
2023/09/28 06:28:46;;;;;;;;;;;23.40;99.80;;;;;;5021295;28;19913;-81
2023/09/28 06:31:14;;;;;;;;;;;23.80;99.70;;;;;;5021099;28;19917;-80
2023/09/28 06:33:42;;;;;;;;;;;24.00;99.40;;;;;;5021266;28;19924;-81
2023/09/28 06:36:08;;;;;;;;;;;24.50;98.60;;;;;;4998898;28;19917;-79
2023/09/28 06:38:33;;;;;;;;;;;24.40;98.30;;;;;;5020853;28;19913;-80
2023/09/28 06:40:59;;;;;;;;;;;24.70;97.70;;;;;;5003054;28;19913;-81
2023/09/28 06:43:25;;;;;;;;;;;24.80;97.20;;;;;;5002721;28;19928;-80
2023/09/28 06:45:50;;;;;;;;;;;24.90;96.90;;;;;;5017694;28;19913;-79
2023/09/28 06:48:18;;;;;;;;;;;25.10;96.50;;;;;;5018342;28;19917;-79
2023/09/28 06:50:44;;;;;;;;;;;25.50;96.00;;;;;;5003095;28;20581;-79
2023/09/28 06:53:09;;;;;;;;;;;25.60;95.60;;;;;;5020729;28;19931;-81
2023/09/28 06:55:36;;;;;;;;;;;25.90;95.20;;;;;;5020298;28;19924;-80
2023/09/28 06:58:06;;;;;;;;;;;25.90;94.70;;;;;;5023495;28;19936;-79
2023/09/28 07:00:32;;;;;;;;;;;26.00;94.60;;;;;;5006744;28;20249;-81
2023/09/28 07:02:57;;;;;;;;;;;26.80;93.60;;;;;;5010310;28;19913;-82
2023/09/28 07:05:23;;;;;;;;;;;26.90;92.80;;;;;;5022315;28;19916;-82
2023/09/28 07:07:50;;;;;;;;;;;27.70;92.30;;;;;;5016233;28;19913;-82
2023/09/28 07:10:17;;;;;;;;;;;28.10;91.40;;;;;;5016081;28;19917;-80
2023/09/28 07:12:44;;;;;;;;;;;29.00;90.00;;;;;;5001649;28;20372;-84
2023/09/28 07:15:11;;;;;;;;;;;29.90;86.20;;;;;;5000809;28;20425;-85
2023/09/28 07:17:36;;;;;;;;;;;30.70;82.60;;;;;;4999150;28;19913;-81
2023/09/28 07:20:03;;;;;;;;;;;31.90;80.30;;;;;;5019665;28;19909;-82
2023/09/28 07:22:29;;;;;;;;;;;31.70;78.50;;;;;;4997286;28;19993;-86
2023/09/28 07:24:56;;;;;;;;;;;31.70;77.10;;;;;;5003581;28;20386;-83
2023/09/28 07:27:22;;;;;;;;;;;32.60;75.70;;;;;;5017192;28;20376;-82
2023/09/28 07:29:49;;;;;;;;;;;33.40;73.90;;;;;;5016704;28;20014;-81
2023/09/28 07:32:14;;;;;;;;;;;34.50;71.10;;;;;;5003354;28;19924;-81
2023/09/28 07:34:42;;;;;;;;;;;35.10;68.70;;;;;;5014041;28;19909;-82
2023/09/28 07:37:07;;;;;;;;;;;35.90;67.40;;;;;;5007555;28;19921;-83
2023/09/28 07:39:33;;;;;;;;;;;34.70;67.10;;;;;;5016723;28;20390;-83
2023/09/28 07:42:04;;;;;;;;;;;34.30;66.80;;;;;;5011303;28;19971;-81
2023/09/28 07:44:30;;;;;;;;;;;34.70;66.40;;;;;;4996862;28;19943;-83
2023/09/28 07:46:55;;;;;;;;;;;35.00;65.10;;;;;;5001507;28;20209;-83
2023/09/28 07:49:21;;;;;;;;;;;35.00;64.80;;;;;;5000034;28;20360;-82
2023/09/28 07:51:47;;;;;;;;;;;34.00;66.00;;;;;;5017847;28;19921;-82
2023/09/28 07:54:13;;;;;;;;;;;34.10;66.10;;;;;;5020577;28;19917;-82
2023/09/28 07:56:40;;;;;;;;;;;34.90;65.00;;;;;;5021599;28;19966;-82
2023/09/28 07:59:06;;;;;;;;;;;35.80;63.20;;;;;;4999321;28;19929;-84
2023/09/28 08:01:38;;;;;;;;;;;36.90;62.10;;;;;;4998815;28;19909;-83
2023/09/28 08:04:05;;;;;;;;;;;36.60;61.00;;;;;;5000539;28;20414;-84
2023/09/28 08:06:32;;;;;;;;;;;36.20;62.00;;;;;;5009627;28;19912;-84
2023/09/28 08:08:58;;;;;;;;;;;36.10;60.80;;;;;;5000227;28;19917;-82
2023/09/28 08:11:24;;;;;;;;;;;35.80;61.30;;;;;;5019876;28;19936;-82
2023/09/28 08:13:50;;;;;;;;;;;36.40;60.40;;;;;;5000758;28;19964;-85
2023/09/28 08:16:15;;;;;;;;;;;35.20;59.40;;;;;;5024052;28;19925;-83
2023/09/28 08:18:41;;;;;;;;;;;33.80;61.80;;;;;;5022380;28;19917;-84
2023/09/28 08:21:08;;;;;;;;;;;32.30;63.00;;;;;;5018442;28;19909;-85
2023/09/28 08:23:36;;;;;;;;;;;32.10;64.10;;;;;;5021936;28;19966;-83
2023/09/28 08:26:01;;;;;;;;;;;32.60;64.10;;;;;;5022142;28;20189;-82
2023/09/28 08:28:27;;;;;;;;;;;33.90;62.20;;;;;;5021152;28;19959;-82
2023/09/28 08:30:56;;;;;;;;;;;34.40;62.20;;;;;;4999484;28;20360;-82
2023/09/28 08:33:22;;;;;;;;;;;35.40;60.50;;;;;;5011607;28;19913;-82
2023/09/28 08:35:51;;;;;;;;;;;36.10;59.80;;;;;;5021675;28;20011;-82
2023/09/28 08:38:17;;;;;;;;;;;36.50;59.40;;;;;;5023020;28;19967;-83
2023/09/28 08:40:42;;;;;;;;;;;35.50;59.30;;;;;;5021114;28;19917;-82
2023/09/28 08:43:10;;;;;;;;;;;34.50;60.50;;;;;;5018097;28;20430;-85
2023/09/28 08:45:38;;;;;;;;;;;34.70;60.00;;;;;;5021766;28;19952;-83
2023/09/28 08:48:06;;;;;;;;;;;34.30;60.50;;;;;;5020976;28;19916;-82
2023/09/28 08:50:38;;;;;;;;;;;33.90;62.40;;;;;;5004418;28;19913;-82
2023/09/28 08:53:04;;;;;;;;;;;34.10;61.60;;;;;;5008523;28;19921;-84
2023/09/28 08:55:33;;;;;;;;;;;34.80;61.20;;;;;;5020566;28;19913;-82
2023/09/28 08:57:59;;;;;;;;;;;35.20;60.90;;;;;;5022860;28;20356;-84
2023/09/28 09:00:25;;;;;;;;;;;36.20;59.80;;;;;;5003826;28;20261;-81
2023/09/28 09:02:51;;;;;;;;;;;36.00;59.70;;;;;;5014252;28;19952;-84
2023/09/28 09:05:17;;;;;;;;;;;36.50;59.50;;;;;;5002866;28;20380;-83
2023/09/28 09:07:43;;;;;;;;;;;36.50;59.80;;;;;;5023443;28;19979;-81
2023/09/28 09:10:12;;;;;;;;;;;37.50;59.10;;;;;;5015910;28;19917;-82
2023/09/28 09:12:41;;;;;;;;;;;38.40;58.20;;;;;;5020168;28;20328;-83
2023/09/28 09:15:07;;;;;;;;;;;38.90;57.30;;;;;;5018075;28;19962;-84
2023/09/28 09:17:35;;;;;;;;;;;37.50;57.90;;;;;;5004316;28;19909;-84
2023/09/28 09:20:08;;;;;;;;;;;36.60;59.10;;;;;;5002986;28;20284;-84
2023/09/28 09:22:34;;;;;;;;;;;37.60;58.80;;;;;;5003128;28;19909;-82
2023/09/28 09:25:00;;;;;;;;;;;38.10;58.10;;;;;;5020590;28;19912;-83
2023/09/28 09:27:29;;;;;;;;;;;38.50;58.20;;;;;;5014809;28;19913;-83
2023/09/28 09:30:07;;;;;;;;;;;38.80;57.40;;;;;;5019720;28;19914;-82
2023/09/28 09:32:34;;;;;;;;;;;39.80;56.30;;;;;;5007762;28;19935;-83
2023/09/28 09:35:00;;;;;;;;;;;39.30;56.60;;;;;;5019371;28;19909;-83
2023/09/28 09:37:26;;;;;;;;;;;39.20;56.60;;;;;;5001801;28;20311;-84
2023/09/28 09:39:52;;;;;;;;;;;40.40;55.50;;;;;;5002353;28;19913;-84
2023/09/28 09:42:24;;;;;;;;;;;40.70;54.00;;;;;;4999772;28;19923;-84
2023/09/28 09:44:51;;;;;;;;;;;41.60;54.30;;;;;;5019158;28;19921;-83
2023/09/28 09:47:19;;;;;;;;;;;41.40;53.60;;;;;;5000739;28;19913;-82
2023/09/28 09:49:46;;;;;;;;;;;41.60;53.20;;;;;;5019326;28;19924;-82
2023/09/28 09:52:13;;;;;;;;;;;40.80;54.10;;;;;;5016002;28;19913;-82
2023/09/28 09:54:39;;;;;;;;;;;39.80;54.70;;;;;;5015819;28;19924;-83
2023/09/28 09:57:06;;;;;;;;;;;40.30;54.10;;;;;;5019920;28;19913;-80
2023/09/28 09:59:34;;;;;;;;;;;40.70;53.80;;;;;;5018211;28;20314;-82
2023/09/28 10:02:03;;;;;;;;;;;41.30;54.00;;;;;;5021150;28;20372;-83
2023/09/28 10:04:29;;;;;;;;;;;42.00;52.60;;;;;;5011118;28;20411;-83
2023/09/28 10:06:57;;;;;;;;;;;39.90;53.10;;;;;;5020663;28;19913;-82
2023/09/28 10:09:23;;;;;;;;;;;39.90;53.50;;;;;;5016909;28;19913;-81
2023/09/28 10:11:52;;;;;;;;;;;39.20;54.20;;;;;;5002392;28;20362;-82
2023/09/28 10:14:20;;;;;;;;;;;38.80;54.40;;;;;;5019794;28;19917;-82
2023/09/28 10:16:50;;;;;;;;;;;38.60;54.40;;;;;;5001429;28;21330;-80
2023/09/28 10:19:19;;;;;;;;;;;36.20;55.60;;;;;;5018904;28;19924;-83
2023/09/28 10:21:45;;;;;;;;;;;36.70;56.90;;;;;;5020000;28;19917;-85
2023/09/28 10:24:14;;;;;;;;;;;37.00;56.10;;;;;;5019000;28;19924;-82
2023/09/28 10:26:47;;;;;;;;;;;38.30;55.20;;;;;;5014822;28;19912;-82
2023/09/28 10:29:17;;;;;;;;;;;40.00;54.40;;;;;;5001641;28;19913;-81
2023/09/28 10:31:43;;;;;;;;;;;41.30;52.40;;;;;;5018187;28;20557;-83
2023/09/28 10:34:15;;;;;;;;;;;40.20;53.60;;;;;;5018310;28;19917;-82
2023/09/28 10:36:41;;;;;;;;;;;39.20;52.60;;;;;;5000692;28;19921;-83
2023/09/28 10:39:16;;;;;;;;;;;39.90;53.90;;;;;;5017270;28;19913;-82
2023/09/28 10:41:49;;;;;;;;;;;40.10;53.00;;;;;;5016081;28;19914;-83
2023/09/28 10:44:21;;;;;;;;;;;40.60;53.50;;;;;;5004930;28;19931;-82
2023/09/28 10:46:47;;;;;;;;;;;39.80;53.10;;;;;;5020227;28;19913;-83
2023/09/28 10:49:14;;;;;;;;;;;39.60;52.80;;;;;;5021651;28;19915;-86
2023/09/28 10:51:40;;;;;;;;;;;39.10;52.90;;;;;;5009360;28;19920;-84
2023/09/28 10:54:06;;;;;;;;;;;36.80;53.70;;;;;;4999882;28;19920;-81
2023/09/28 10:56:32;;;;;;;;;;;33.80;56.10;;;;;;5005158;28;19909;-82
2023/09/28 10:59:01;;;;;;;;;;;31.80;58.40;;;;;;4997690;28;19987;-87
2023/09/28 11:01:28;;;;;;;;;;;30.80;59.60;;;;;;4999409;28;19909;-80
2023/09/28 11:03:54;;;;;;;;;;;29.90;60.80;;;;;;4997112;28;19913;-80
2023/09/28 11:06:21;;;;;;;;;;;29.30;61.90;;;;;;5018103;28;20276;-82
2023/09/28 11:08:48;;;;;;;;;;;29.00;62.90;;;;;;5000340;28;19917;-81
2023/09/28 11:11:14;;;;;;;;;;;28.80;63.00;;;;;;5019045;28;19921;-82
2023/09/28 11:13:40;;;;;;;;;;;28.80;63.10;;;;;;5016763;28;19917;-83
2023/09/28 11:16:09;;;;;;;;;;;29.00;62.20;;;;;;5011269;28;20335;-82
2023/09/28 11:18:36;;;;;;;;;;;29.20;61.80;;;;;;4999212;28;20628;-83
2023/09/28 11:21:03;;;;;;;;;;;29.30;62.40;;;;;;5012695;28;20284;-81
2023/09/28 11:23:29;;;;;;;;;;;29.50;62.00;;;;;;5018060;28;19909;-81
2023/09/28 11:25:54;;;;;;;;;;;29.30;62.20;;;;;;5016720;28;19909;-81
2023/09/28 11:28:21;;;;;;;;;;;29.00;63.90;;;;;;5003209;28;19913;-81
2023/09/28 11:31:02;;;;;;;;;;;29.10;62.90;;;;;;4998997;28;20016;-81
2023/09/28 11:33:28;;;;;;;;;;;29.40;63.20;;;;;;5016066;28;19921;-80
2023/09/28 11:35:55;;;;;;;;;;;29.40;62.20;;;;;;4999855;28;19925;-81
2023/09/28 11:38:20;;;;;;;;;;;29.30;62.30;;;;;;5021493;28;19909;-81
2023/09/28 11:40:48;;;;;;;;;;;29.30;61.70;;;;;;5008175;28;19915;-81
2023/09/28 11:43:15;;;;;;;;;;;29.40;61.80;;;;;;5016628;28;19921;-81
2023/09/28 11:45:40;;;;;;;;;;;29.60;61.80;;;;;;5016534;28;19913;-81
2023/09/28 11:48:06;;;;;;;;;;;29.50;62.40;;;;;;5000041;28;20462;-81
2023/09/28 11:50:33;;;;;;;;;;;29.60;61.70;;;;;;5015444;28;19913;-81
2023/09/28 11:52:58;;;;;;;;;;;29.30;60.30;;;;;;5015009;28;19917;-81
2023/09/28 11:55:25;;;;;;;;;;;28.90;62.00;;;;;;5012716;28;20355;-81
2023/09/28 11:57:50;;;;;;;;;;;28.70;61.70;;;;;;5020764;28;19909;-82
2023/09/28 12:00:19;;;;;;;;;;;28.60;62.60;;;;;;5019821;28;19917;-83
2023/09/28 12:02:45;;;;;;;;;;;28.90;62.00;;;;;;5000518;28;19917;-81
2023/09/28 12:05:11;;;;;;;;;;;29.10;62.00;;;;;;5000221;28;19913;-80
2023/09/28 12:07:37;;;;;;;;;;;28.80;61.50;;;;;;5003574;28;19917;-81
2023/09/28 12:10:05;;;;;;;;;;;28.80;62.50;;;;;;5017185;28;19967;-82
2023/09/28 12:12:31;;;;;;;;;;;28.80;62.30;;;;;;5008783;28;19921;-82
2023/09/28 12:14:58;;;;;;;;;;;28.90;62.50;;;;;;5012934;28;20042;-82
2023/09/28 12:17:24;;;;;;;;;;;29.00;62.30;;;;;;5017275;28;20411;-82
2023/09/28 12:19:50;;;;;;;;;;;29.20;62.00;;;;;;5001227;28;19928;-83
2023/09/28 12:22:16;;;;;;;;;;;29.20;62.40;;;;;;5016091;28;19917;-82
2023/09/28 12:24:42;;;;;;;;;;;29.30;61.90;;;;;;5009817;28;20011;-81
2023/09/28 12:27:12;;;;;;;;;;;29.30;61.90;;;;;;5017208;28;19996;-82
2023/09/28 12:29:38;;;;;;;;;;;29.10;63.20;;;;;;5016287;28;19917;-80
2023/09/28 12:32:03;;;;;;;;;;;29.10;62.70;;;;;;5017348;28;19921;-78
2023/09/28 12:34:30;;;;;;;;;;;28.90;62.10;;;;;;5010964;28;19917;-79
2023/09/28 12:36:57;;;;;;;;;;;28.50;62.30;;;;;;5017227;28;20011;-78
2023/09/28 12:39:23;;;;;;;;;;;28.40;63.40;;;;;;5014560;28;19918;-79
2023/09/28 12:41:49;;;;;;;;;;;28.40;62.60;;;;;;5008576;28;19913;-78
2023/09/28 12:44:14;;;;;;;;;;;28.20;62.70;;;;;;5008082;28;19927;-78
2023/09/28 12:46:40;;;;;;;;;;;28.10;63.10;;;;;;4996420;28;19944;-78
2023/09/28 12:49:06;;;;;;;;;;;28.10;64.00;;;;;;5017108;28;19913;-79
2023/09/28 12:51:33;;;;;;;;;;;28.20;64.10;;;;;;5014717;28;19967;-78
2023/09/28 12:53:58;;;;;;;;;;;28.00;65.10;;;;;;4998066;28;19955;-78
2023/09/28 12:56:24;;;;;;;;;;;27.90;65.40;;;;;;5004013;28;19948;-79
2023/09/28 12:58:50;;;;;;;;;;;27.90;65.50;;;;;;4997853;28;19931;-79
2023/09/28 13:01:15;;;;;;;;;;;27.80;63.20;;;;;;5012376;28;20351;-79
2023/09/28 13:03:41;;;;;;;;;;;27.80;60.90;;;;;;5017082;28;19917;-78
2023/09/28 13:06:09;;;;;;;;;;;27.80;61.50;;;;;;5008535;28;19957;-79
2023/09/28 13:08:35;;;;;;;;;;;27.70;61.90;;;;;;5020901;28;19920;-78
2023/09/28 13:11:03;;;;;;;;;;;27.70;61.40;;;;;;5003206;28;20376;-79
2023/09/28 13:13:28;;;;;;;;;;;27.80;60.90;;;;;;4997813;28;19913;-78
2023/09/28 13:15:54;;;;;;;;;;;27.80;60.80;;;;;;5009360;28;20343;-79
2023/09/28 13:18:20;;;;;;;;;;;28.00;61.10;;;;;;5016391;28;19909;-79
2023/09/28 13:20:46;;;;;;;;;;;28.00;60.70;;;;;;5019319;28;20230;-78
2023/09/28 13:23:12;;;;;;;;;;;27.90;60.90;;;;;;5002863;28;19917;-79
2023/09/28 13:25:38;;;;;;;;;;;27.80;61.50;;;;;;5016737;28;20112;-79
2023/09/28 13:28:07;;;;;;;;;;;27.70;62.40;;;;;;5022019;28;19913;-79
2023/09/28 13:30:38;;;;;;;;;;;27.70;61.40;;;;;;5017391;28;19915;-78
2023/09/28 13:33:06;;;;;;;;;;;27.70;61.70;;;;;;5001535;28;19924;-79
2023/09/28 13:35:32;;;;;;;;;;;27.80;61.80;;;;;;5018549;28;19910;-79
2023/09/28 13:37:58;;;;;;;;;;;27.90;60.90;;;;;;5020275;28;19918;-80
2023/09/28 13:40:32;;;;;;;;;;;27.80;61.20;;;;;;5011397;28;19920;-80
2023/09/28 13:42:59;;;;;;;;;;;27.90;61.10;;;;;;5018749;28;19924;-79
2023/09/28 13:45:27;;;;;;;;;;;27.80;60.90;;;;;;5016906;28;20032;-79
2023/09/28 13:47:56;;;;;;;;;;;27.80;61.50;;;;;;5019376;28;19920;-79
2023/09/28 13:50:21;;;;;;;;;;;27.80;60.20;;;;;;5003043;28;19909;-78
2023/09/28 13:52:49;;;;;;;;;;;27.70;61.00;;;;;;5008891;28;20577;-79
2023/09/28 13:55:16;;;;;;;;;;;27.60;60.90;;;;;;5024307;28;19929;-79
2023/09/28 13:57:44;;;;;;;;;;;27.50;61.00;;;;;;5003124;28;19917;-79
2023/09/28 14:00:21;;;;;;;;;;;27.60;61.30;;;;;;5001039;28;19940;-79
2023/09/28 14:02:48;;;;;;;;;;;27.60;61.00;;;;;;5004871;28;19917;-78
2023/09/28 14:05:14;;;;;;;;;;;27.50;60.80;;;;;;5017928;28;19913;-78
2023/09/28 14:07:39;;;;;;;;;;;27.50;61.10;;;;;;5021100;28;19940;-79
2023/09/28 14:10:07;;;;;;;;;;;27.50;61.00;;;;;;5017478;28;20326;-81
2023/09/28 14:12:32;;;;;;;;;;;27.50;61.00;;;;;;5017895;28;19913;-79